»·PEaware :: AAL39 EGLL-KMIA

AAL39 :: EGLL-KMIA

FLIGHT INFORMATION

Flight Status: Arrived
Operator:
American Airlines
More flights by this operator :: More flights under this callsign
Pilot: Drew L. (13237)
Aircraft: Unknown
(B77W)
More flights by this aircraft type
Origin: EGLL Heathrow
United Kingdom
Destination: KMIA Miami Intl
United States
More flights between these airports :: More routes between these airports
Route: CPT5J CPT UL9 SLANY/M083F320 VENER 5520N 5630N 5540N 5350N/N0495F320 PELTU/N0491F340 TAFFY EMJAY J174 SWL CEBEE WETRO DIW AR22 JORAY HILEY7
File this flight plan on PilotEdge
Remarks: PBN / A1B1C1D1L1O1S2 DOF / 180318 REG / N713SB EET / EISN0029 EGGX0105 CZQX0216 CZUL0415 CZQX0420 CZQM0503 KZBW0517 KZDC0618 KZJX0713 KZMA0740 OPR / AAL PER / D RALT / EGPO BGSF RMK / TCAS SIMBRIEF
Altitude:
(Current/Filed)
32,000ft
Speed:
(Current/Filed)
479kts
Departed: 18-Mar-18 08:29 AM
Arrived: 18-Mar-18 05:15 PM
Distance/Time
Traveled:
3836nm/8:46
Distance/Time
To Go:
Arrived

Flight Plot

Page will automatically refresh every two minutes.

Flight plan parsing failed; only flown route is shown


Map Options




Map Legend


Flown Route
Filed Route
Departure Airport
Arrival Airport
Navaid (VOR, NDB)
Fix

Horizontal Profiles

Position Reports

Time Latitude Longitude Heading Altitude Ground
Speed
18-Mar-18 07:40 51.473962 -0.462389 235 96ft 0kts
18-Mar-18 07:41 51.473962 -0.462389 235 96ft 0kts
18-Mar-18 07:42 51.473962 -0.462389 235 96ft 0kts
18-Mar-18 07:43 51.473962 -0.462389 235 96ft 0kts
18-Mar-18 07:44 51.473962 -0.462389 235 96ft 0kts
18-Mar-18 07:45 51.473962 -0.462389 235 96ft 0kts
18-Mar-18 07:46 51.473962 -0.462389 235 96ft 0kts
18-Mar-18 07:47 51.473962 -0.462389 235 96ft 0kts
18-Mar-18 07:48 51.473962 -0.462389 235 96ft 0kts
18-Mar-18 07:49 51.473962 -0.462389 235 96ft 0kts
18-Mar-18 07:50 51.473962 -0.462389 235 96ft 0kts
18-Mar-18 07:51 51.473962 -0.462389 235 96ft 0kts
18-Mar-18 07:52 51.473962 -0.462389 235 96ft 0kts
18-Mar-18 07:53 51.473962 -0.462389 235 96ft 0kts
18-Mar-18 07:54 51.473962 -0.462389 235 96ft 0kts
18-Mar-18 07:55 51.473962 -0.462389 235 96ft 0kts
18-Mar-18 07:56 51.473962 -0.462389 235 96ft 0kts
18-Mar-18 07:57 51.473962 -0.462389 235 96ft 0kts
18-Mar-18 07:58 51.473962 -0.462389 235 96ft 0kts
18-Mar-18 07:59 51.473962 -0.462389 235 96ft 0kts
18-Mar-18 08:00 51.473962 -0.462389 235 96ft 0kts
18-Mar-18 08:01 51.473962 -0.462389 235 96ft 0kts
18-Mar-18 08:02 51.473969 -0.462372 235 96ft 0kts
18-Mar-18 08:03 51.473969 -0.462372 235 96ft 0kts
18-Mar-18 08:04 51.473969 -0.462372 235 96ft 0kts
18-Mar-18 08:05 51.473969 -0.462372 235 96ft 0kts
18-Mar-18 08:06 51.473969 -0.462372 235 96ft 0kts
18-Mar-18 08:07 51.473969 -0.462372 235 96ft 0kts
18-Mar-18 08:08 51.473969 -0.462372 235 96ft 0kts
18-Mar-18 08:09 51.473969 -0.462372 235 96ft 0kts
18-Mar-18 08:10 51.473969 -0.462372 235 96ft 0kts
18-Mar-18 08:11 51.473969 -0.462372 235 96ft 0kts
18-Mar-18 08:12 51.473969 -0.462372 235 96ft 0kts
18-Mar-18 08:13 51.473969 -0.462372 235 96ft 0kts
18-Mar-18 08:14 51.473969 -0.462372 235 96ft 0kts
18-Mar-18 08:15 51.474245 -0.461726 235 96ft 2kts
18-Mar-18 08:16 51.474457 -0.461191 245 96ft 0kts
18-Mar-18 08:17 51.474457 -0.461191 245 96ft 0kts
18-Mar-18 08:18 51.474457 -0.461191 245 96ft 0kts
18-Mar-18 08:19 51.474457 -0.461193 245 96ft 0kts
18-Mar-18 08:20 51.475168 -0.464318 268 96ft 13kts
18-Mar-18 08:21 51.474315 -0.468908 169 96ft 16kts
18-Mar-18 08:22 51.467379 -0.468581 178 96ft 5kts
18-Mar-18 08:23 51.466571 -0.470474 269 96ft 21kts
18-Mar-18 08:24 51.466529 -0.482406 270 96ft 33kts
18-Mar-18 08:25 51.464806 -0.486372 89 96ft 0kts
18-Mar-18 08:26 51.464806 -0.486346 89 96ft 2kts
18-Mar-18 08:27 51.464818 -0.472489 89 96ft 0kts
18-Mar-18 08:28 51.464837 -0.468595 89 96ft 73kts
18-Mar-18 08:29 51.464953 -0.454077 73 96ft 0kts
18-Mar-18 08:30 51.464986 -0.453890 73 96ft 0kts
18-Mar-18 08:31 51.464998 -0.453826 73 96ft 0kts
18-Mar-18 08:32 51.465037 -0.453606 73 96ft 0kts
18-Mar-18 08:33 51.465037 -0.453605 73 96ft 0kts
18-Mar-18 08:52 51.472610 -0.463176 55 96ft 0kts
18-Mar-18 08:53 51.472610 -0.463176 55 96ft 0kts
18-Mar-18 08:54 51.472610 -0.463176 55 96ft 0kts
18-Mar-18 08:55 51.472610 -0.463176 55 96ft 0kts
18-Mar-18 08:56 51.472610 -0.463176 55 96ft 0kts
18-Mar-18 08:57 51.472530 -0.463361 55 96ft 2kts
18-Mar-18 08:58 51.472075 -0.464419 55 96ft 2kts
18-Mar-18 08:59 51.472005 -0.464582 55 96ft 0kts
18-Mar-18 09:00 51.472447 -0.464545 297 96ft 7kts
18-Mar-18 09:01 51.470717 -0.468672 177 96ft 6kts
18-Mar-18 09:02 51.467590 -0.469084 246 96ft 2kts
18-Mar-18 09:03 51.467447 -0.476348 268 96ft 14kts
18-Mar-18 09:04 51.467435 -0.485489 268 96ft 6kts
18-Mar-18 09:05 51.465444 -0.487812 170 96ft 16kts
18-Mar-18 09:06 51.464794 -0.485596 90 96ft 22kts
18-Mar-18 09:07 51.464901 -0.435390 89 240ft 175kts
18-Mar-18 09:08 51.456677 -0.354407 126 2366ft 197kts
18-Mar-18 09:09 51.409142 -0.381891 218 4545ft 210kts
18-Mar-18 09:10 51.399446 -0.474804 279 5409ft 242kts
18-Mar-18 09:11 51.415635 -0.592937 283 5918ft 294kts
18-Mar-18 09:12 51.432366 -0.721186 283 5893ft 290kts
18-Mar-18 09:13 51.448872 -0.848338 283 5885ft 293kts
18-Mar-18 09:14 51.464105 -0.976745 281 5889ft 293kts
18-Mar-18 09:15 51.478786 -1.105496 281 5904ft 292kts
18-Mar-18 09:16 51.493373 -1.234273 283 6037ft 292kts
18-Mar-18 09:17 51.509481 -1.363616 281 8712ft 299kts
18-Mar-18 09:18 51.527413 -1.498990 285 10572ft 333kts
18-Mar-18 09:19 51.554829 -1.656013 284 11943ft 390kts
18-Mar-18 09:20 51.581732 -1.828864 281 14331ft 408kts
18-Mar-18 09:21 51.606666 -2.011487 281 16572ft 424kts
18-Mar-18 09:22 51.632729 -2.200130 281 18641ft 439kts
18-Mar-18 09:23 51.660611 -2.395061 281 20582ft 451kts
18-Mar-18 09:24 51.688310 -2.595150 280 22334ft 464kts
18-Mar-18 09:25 51.716628 -2.801538 280 23931ft 476kts
18-Mar-18 09:26 51.744802 -3.012106 280 25479ft 485kts
18-Mar-18 09:27 51.772712 -3.226830 280 26879ft 493kts
18-Mar-18 09:28 51.800878 -3.446407 280 28120ft 502kts
18-Mar-18 09:29 51.828763 -3.669157 280 29220ft 510kts
18-Mar-18 09:30 51.857454 -3.895809 281 30293ft 513kts
18-Mar-18 09:31 51.885901 -4.121387 280 31414ft 512kts
18-Mar-18 09:32 51.913438 -4.347830 280 31897ft 518kts
18-Mar-18 09:33 51.941491 -4.579890 281 31910ft 528kts
18-Mar-18 09:34 51.968881 -4.813253 280 31912ft 526kts
18-Mar-18 09:35 51.996480 -5.046287 284 31917ft 527kts
18-Mar-18 09:36 52.042309 -5.273738 289 31926ft 531kts
18-Mar-18 09:37 52.090221 -5.500370 288 31938ft 530kts
18-Mar-18 09:38 52.135950 -5.728851 288 31943ft 530kts
18-Mar-18 09:39 52.190047 -5.950817 297 31946ft 528kts
18-Mar-18 09:40 52.256508 -6.164010 297 31972ft 528kts
18-Mar-18 09:41 52.321837 -6.379422 298 31977ft 528kts
18-Mar-18 09:42 52.387802 -6.593835 297 31973ft 529kts
18-Mar-18 09:43 52.452596 -6.809936 297 31973ft 529kts
18-Mar-18 09:44 52.517077 -7.027413 297 31973ft 528kts
18-Mar-18 09:45 52.580941 -7.244835 297 31977ft 529kts
18-Mar-18 09:46 52.644583 -7.463519 297 31985ft 529kts
18-Mar-18 09:47 52.707604 -7.682058 297 31992ft 528kts
18-Mar-18 09:48 52.770215 -7.901215 296 32022ft 529kts
18-Mar-18 09:49 52.832652 -8.121857 296 32038ft 527kts
18-Mar-18 09:50 52.894237 -8.341484 296 32047ft 527kts
18-Mar-18 09:51 52.955432 -8.561842 296 32050ft 527kts
18-Mar-18 09:52 53.016415 -8.783492 296 32056ft 526kts
18-Mar-18 09:53 53.076673 -9.004656 296 32058ft 526kts
18-Mar-18 09:54 53.136667 -9.226964 296 32061ft 525kts
18-Mar-18 09:55 53.196002 -9.448984 296 32064ft 525kts
18-Mar-18 09:56 53.254886 -9.671483 296 32078ft 524kts
18-Mar-18 09:57 53.313579 -9.895449 295 32082ft 526kts
18-Mar-18 09:58 53.371691 -10.119411 295 32081ft 524kts
18-Mar-18 09:59 53.429438 -10.344201 295 32081ft 524kts
18-Mar-18 10:00 53.486527 -10.568670 295 32080ft 523kts
18-Mar-18 10:01 53.543068 -10.793217 295 32080ft 522kts
18-Mar-18 10:02 53.599268 -11.018726 295 32080ft 521kts
18-Mar-18 10:03 53.654807 -11.243833 294 32079ft 521kts
18-Mar-18 10:04 53.709927 -11.469565 294 32079ft 521kts
18-Mar-18 10:05 53.764893 -11.697018 294 32079ft 522kts
18-Mar-18 10:06 53.819342 -11.924706 294 32079ft 523kts
18-Mar-18 10:07 53.873619 -12.154113 294 32078ft 523kts
18-Mar-18 10:08 53.927253 -12.383188 294 32079ft 522kts
18-Mar-18 10:09 53.980134 -12.611484 293 32093ft 518kts
18-Mar-18 10:10 54.032594 -12.840464 293 32094ft 522kts
18-Mar-18 10:11 54.084969 -13.071543 293 32094ft 523kts
18-Mar-18 10:12 54.136711 -13.302342 293 32095ft 521kts
18-Mar-18 10:13 54.188011 -13.533728 293 32096ft 519kts
18-Mar-18 10:14 54.238466 -13.763851 293 32096ft 517kts
18-Mar-18 10:15 54.288487 -13.994555 293 32098ft 516kts
18-Mar-18 10:16 54.337814 -14.224636 293 32098ft 515kts
18-Mar-18 10:17 54.386779 -14.455619 293 32098ft 516kts
18-Mar-18 10:18 54.436031 -14.687761 292 32100ft 517kts
18-Mar-18 10:19 54.483739 -14.920544 293 32126ft 517kts
18-Mar-18 10:20 54.521398 -15.160333 284 32128ft 520kts
18-Mar-18 10:21 54.547937 -15.404527 284 32130ft 518kts
18-Mar-18 10:22 54.575764 -15.647067 286 32131ft 514kts
18-Mar-18 10:23 54.604754 -15.889098 285 32132ft 514kts
18-Mar-18 10:24 54.632139 -16.130406 284 32133ft 511kts
18-Mar-18 10:25 54.658845 -16.371186 284 32134ft 512kts
18-Mar-18 10:26 54.685183 -16.613397 284 32135ft 512kts
18-Mar-18 10:27 54.710958 -16.855172 283 32137ft 512kts
18-Mar-18 10:28 54.736302 -17.097735 283 32138ft 511kts
18-Mar-18 10:29 54.761036 -17.339389 283 32139ft 510kts
18-Mar-18 10:30 54.785228 -17.580700 282 32140ft 508kts
18-Mar-18 10:31 54.808973 -17.822609 282 32142ft 507kts
18-Mar-18 10:32 54.832129 -18.063566 281 32142ft 506kts
18-Mar-18 10:33 54.854756 -18.304465 281 32143ft 504kts
18-Mar-18 10:34 54.876839 -18.544815 280 32145ft 505kts
18-Mar-18 10:35 54.894877 -18.745255 280 32148ft 505kts
18-Mar-18 10:36 54.919632 -19.026810 279 32151ft 504kts
18-Mar-18 10:37 54.936835 -19.227186 279 32153ft 503kts
18-Mar-18 10:38 54.960756 -19.507473 279 32155ft 502kts
18-Mar-18 10:39 54.977267 -19.708501 278 32159ft 502kts
18-Mar-18 10:40 54.996032 -19.949032 278 32161ft 502kts
18-Mar-18 10:41 55.025147 -20.186410 284 32163ft 497kts
18-Mar-18 10:42 55.058543 -20.420201 283 32156ft 498kts
18-Mar-18 10:43 55.091026 -20.654628 284 32159ft 497kts
18-Mar-18 10:44 55.124342 -20.889072 283 32161ft 495kts
18-Mar-18 10:45 55.156050 -21.122929 283 32163ft 494kts
18-Mar-18 10:46 55.187114 -21.356616 282 32165ft 494kts
18-Mar-18 10:47 55.217795 -21.591294 282 32167ft 494kts
18-Mar-18 10:48 55.247958 -21.825812 281 32170ft 494kts
18-Mar-18 10:49 55.277814 -22.061829 281 32172ft 494kts
18-Mar-18 10:50 55.306990 -22.296416 281 32174ft 492kts
18-Mar-18 10:51 55.335663 -22.530871 281 32175ft 491kts
18-Mar-18 10:52 55.363886 -22.765650 281 32165ft 489kts
18-Mar-18 10:53 55.391463 -22.999111 281 32167ft 487kts
18-Mar-18 10:54 55.418618 -23.233091 280 32169ft 487kts
18-Mar-18 10:55 55.445195 -23.466231 280 32170ft 486kts
18-Mar-18 10:56 55.471332 -23.699722 280 32121ft 486kts
18-Mar-18 10:57 55.497104 -23.934257 280 32121ft 486kts
18-Mar-18 10:58 55.522354 -24.168401 280 32122ft 486kts
18-Mar-18 10:59 55.547147 -24.402754 280 32123ft 486kts
18-Mar-18 11:00 55.571541 -24.637902 280 32124ft 485kts
18-Mar-18 11:01 55.595336 -24.871812 279 32124ft 484kts
18-Mar-18 11:02 55.618727 -25.106449 279 32126ft 482kts
18-Mar-18 11:03 55.641501 -25.339620 279 32127ft 481kts
18-Mar-18 11:04 55.663766 -25.572358 279 32127ft 479kts
18-Mar-18 11:05 55.685593 -25.805385 279 32128ft 478kts
18-Mar-18 11:06 55.706849 -26.037251 279 32128ft 477kts
18-Mar-18 11:07 55.727776 -26.270580 279 32129ft 479kts
18-Mar-18 11:08 55.748256 -26.504100 278 32122ft 481kts
18-Mar-18 11:09 55.768419 -26.739355 278 32142ft 484kts
18-Mar-18 11:10 55.788350 -26.977499 277 32143ft 488kts
18-Mar-18 11:11 55.807911 -27.217015 277 32173ft 492kts
18-Mar-18 11:12 55.827171 -27.458863 277 32173ft 494kts
18-Mar-18 11:13 55.845950 -27.700896 277 32174ft 495kts
18-Mar-18 11:14 55.864274 -27.943346 276 32173ft 495kts
18-Mar-18 11:15 55.882181 -28.186861 276 32173ft 495kts
18-Mar-18 11:16 55.899584 -28.430296 275 32172ft 497kts
18-Mar-18 11:17 55.916675 -28.676367 275 32172ft 501kts
18-Mar-18 11:18 55.933357 -28.923925 274 32171ft 506kts
18-Mar-18 11:19 55.949707 -29.174221 274 32171ft 511kts
18-Mar-18 11:20 55.965734 -29.427471 274 32170ft 514kts
18-Mar-18 11:21 55.981813 -29.681118 273 32170ft 515kts
18-Mar-18 11:22 55.996280 -29.936448 272 32168ft 515kts
18-Mar-18 11:23 55.989495 -30.190094 260 32169ft 512kts
18-Mar-18 11:24 55.972731 -30.442499 260 32168ft 513kts
18-Mar-18 11:25 55.956583 -30.696469 261 32168ft 516kts
18-Mar-18 11:26 55.941400 -30.950983 259 32166ft 517kts
18-Mar-18 11:27 55.924588 -31.206071 259 32120ft 520kts
18-Mar-18 11:28 55.907023 -31.462628 258 32000ft 521kts
18-Mar-18 11:29 55.888942 -31.718594 258 31996ft 521kts
18-Mar-18 11:30 55.870268 -31.975138 258 31991ft 521kts
18-Mar-18 11:31 55.851134 -32.230492 258 31987ft 521kts
18-Mar-18 11:32 55.831435 -32.486040 257 31982ft 523kts
18-Mar-18 11:33 55.811060 -32.743187 257 31977ft 525kts
18-Mar-18 11:34 55.790127 -33.000318 256 31973ft 528kts
18-Mar-18 11:35 55.768526 -33.258714 256 31967ft 531kts
18-Mar-18 11:36 55.746188 -33.519055 256 31962ft 534kts
18-Mar-18 11:37 55.723292 -33.779220 256 31957ft 535kts
18-Mar-18 11:38 55.699725 -34.040390 255 31951ft 535kts
18-Mar-18 11:39 55.675651 -34.300741 255 31946ft 536kts
18-Mar-18 11:40 55.651050 -34.560568 255 31940ft 536kts
18-Mar-18 11:41 55.625794 -34.821132 255 31934ft 536kts
18-Mar-18 11:42 55.600038 -35.080852 255 31928ft 537kts
18-Mar-18 11:43 55.573581 -35.341701 254 31921ft 538kts
18-Mar-18 11:44 55.546590 -35.602017 254 31915ft 540kts
18-Mar-18 11:45 55.518974 -35.862671 254 31909ft 541kts
18-Mar-18 11:46 55.490660 -36.124283 254 31902ft 542kts
18-Mar-18 11:47 55.461880 -36.384709 254 31895ft 541kts
18-Mar-18 11:48 55.432599 -36.644303 253 31888ft 540kts
18-Mar-18 11:49 55.402738 -36.903748 253 31881ft 540kts
18-Mar-18 11:50 55.372442 -37.161902 253 31805ft 540kts
18-Mar-18 11:51 55.341446 -37.420925 253 31580ft 541kts
18-Mar-18 11:52 55.309916 -37.679438 253 31570ft 543kts
18-Mar-18 11:53 55.277802 -37.937869 253 31566ft 543kts
18-Mar-18 11:54 55.244999 -38.196944 252 32408ft 538kts
18-Mar-18 11:55 55.212230 -38.451213 252 33376ft 533kts
18-Mar-18 11:56 55.179170 -38.703235 252 33553ft 528kts
18-Mar-18 11:57 55.145818 -38.953205 252 33547ft 529kts
18-Mar-18 11:58 55.111928 -39.202933 252 33543ft 529kts
18-Mar-18 11:59 55.077448 -39.452883 252 33539ft 528kts
18-Mar-18 12:00 55.043083 -39.701750 251 33534ft 528kts
18-Mar-18 12:01 55.007244 -39.949849 251 33530ft 528kts
18-Mar-18 12:02 54.969701 -40.198013 250 33526ft 529kts
18-Mar-18 12:03 54.930908 -40.444791 250 33521ft 530kts
18-Mar-18 12:04 54.892432 -40.692682 251 33517ft 530kts
18-Mar-18 12:05 54.854240 -40.939805 250 33511ft 530kts
18-Mar-18 12:06 54.814665 -41.186963 249 33507ft 531kts
18-Mar-18 12:07 54.774649 -41.432844 249 33503ft 530kts
18-Mar-18 12:08 54.734156 -41.678040 249 33497ft 530kts
18-Mar-18 12:09 54.693035 -41.923532 249 33494ft 530kts
18-Mar-18 12:10 54.651578 -42.167651 249 33488ft 530kts
18-Mar-18 12:11 54.609613 -42.411338 249 33482ft 531kts
18-Mar-18 12:12 54.566922 -42.655872 248 33477ft 531kts
18-Mar-18 12:13 54.523841 -42.899317 248 33471ft 532kts
18-Mar-18 12:14 54.480056 -43.143434 248 33466ft 533kts
18-Mar-18 12:15 54.435891 -43.386430 248 33461ft 533kts
18-Mar-18 12:16 54.391224 -43.628986 248 33455ft 533kts
18-Mar-18 12:17 54.345971 -43.871543 248 33449ft 533kts
18-Mar-18 12:18 54.300373 -44.112832 248 33443ft 533kts
18-Mar-18 12:19 54.254138 -44.354395 247 33436ft 533kts
18-Mar-18 12:20 54.207507 -44.594975 247 33431ft 534kts
18-Mar-18 12:21 54.160364 -44.835178 247 33425ft 535kts
18-Mar-18 12:22 54.112511 -45.075998 247 33418ft 535kts
18-Mar-18 12:23 54.064360 -45.315364 247 33411ft 535kts
18-Mar-18 12:24 54.015565 -45.555000 247 33322ft 535kts
18-Mar-18 12:25 53.966485 -45.793167 247 33182ft 535kts
18-Mar-18 12:26 53.916870 -46.031074 246 33175ft 535kts
18-Mar-18 12:27 53.866581 -46.269378 246 33169ft 536kts
18-Mar-18 12:28 53.816027 -46.506144 246 33163ft 535kts
18-Mar-18 12:29 53.764862 -46.743005 246 33157ft 534kts
18-Mar-18 12:30 53.713450 -46.978308 246 33151ft 535kts
18-Mar-18 12:31 53.661501 -47.213383 246 33144ft 536kts
18-Mar-18 12:32 53.608771 -47.449289 246 33139ft 538kts
18-Mar-18 12:33 53.555638 -47.684364 246 33133ft 538kts
18-Mar-18 12:34 53.501933 -47.919329 246 33127ft 539kts
18-Mar-18 12:35 53.447533 -48.154698 246 33121ft 540kts
18-Mar-18 12:36 53.392867 -48.388657 246 33115ft 539kts
18-Mar-18 12:37 53.337771 -48.621897 245 33109ft 537kts
18-Mar-18 12:38 53.282465 -48.853522 245 33103ft 537kts
18-Mar-18 12:39 53.226767 -49.084295 245 33101ft 537kts
18-Mar-18 12:40 53.170450 -49.315247 245 33096ft 536kts
18-Mar-18 12:41 53.114100 -49.544892 246 33091ft 536kts
18-Mar-18 12:42 53.066632 -49.736663 245 33000ft 536kts
18-Mar-18 12:43 53.000482 -50.003158 249 32982ft 536kts
18-Mar-18 12:44 52.962110 -50.242168 255 32978ft 536kts
18-Mar-18 12:45 52.925512 -50.482519 254 32972ft 537kts
18-Mar-18 12:46 52.889276 -50.721797 254 32966ft 536kts
18-Mar-18 12:47 52.858462 -50.920619 254 32961ft 535kts
18-Mar-18 12:48 52.814239 -51.198628 254 32954ft 534kts
18-Mar-18 12:49 52.782367 -51.395959 254 32950ft 534kts
18-Mar-18 12:50 52.737107 -51.672256 254 32944ft 533kts
18-Mar-18 12:51 52.704521 -51.868449 254 32940ft 532kts
18-Mar-18 12:52 52.665048 -52.103140 254 32934ft 531kts
18-Mar-18 12:53 52.618409 -52.376465 254 32928ft 530kts
18-Mar-18 12:54 52.584822 -52.570686 253 32923ft 530kts
18-Mar-18 12:55 52.543948 -52.804195 253 32923ft 530kts
18-Mar-18 12:56 52.502786 -53.036344 253 32919ft 530kts
18-Mar-18 12:57 52.461178 -53.268007 253 32914ft 529kts
18-Mar-18 12:58 52.419093 -53.499358 253 32909ft 528kts
18-Mar-18 12:59 52.376817 -53.728895 253 32903ft 526kts
18-Mar-18 13:00 52.334068 -53.958139 253 32898ft 525kts
18-Mar-18 13:01 52.291109 -54.185717 253 32892ft 524kts
18-Mar-18 13:02 52.247705 -54.412887 253 32869ft 525kts
18-Mar-18 13:03 52.203692 -54.640560 252 32867ft 525kts
18-Mar-18 13:04 52.159868 -54.867361 252 32870ft 526kts
18-Mar-18 13:05 52.114545 -55.094014 252 32864ft 525kts
18-Mar-18 13:06 52.057761 -55.312233 243 32863ft 525kts
18-Mar-18 13:07 51.990500 -55.522068 243 32863ft 523kts
18-Mar-18 13:08 51.924712 -55.732629 244 32863ft 522kts
18-Mar-18 13:09 51.860003 -55.942761 243 32878ft 522kts
18-Mar-18 13:10 51.794016 -56.152478 243 32885ft 522kts
18-Mar-18 13:11 51.727835 -56.360700 243 32893ft 522kts
18-Mar-18 13:12 51.661334 -56.568146 243 32903ft 521kts
18-Mar-18 13:13 51.594351 -56.775323 243 32919ft 520kts
18-Mar-18 13:14 51.527291 -56.981030 243 32934ft 520kts
18-Mar-18 13:15 51.459697 -57.186650 243 32939ft 520kts
18-Mar-18 13:16 51.391957 -57.390993 242 32939ft 520kts
18-Mar-18 13:17 51.323883 -57.594728 242 32946ft 520kts
18-Mar-18 13:18 51.255252 -57.798439 242 32960ft 519kts
18-Mar-18 13:19 51.186511 -58.000828 242 32976ft 519kts
18-Mar-18 13:20 51.117524 -58.202303 242 32995ft 518kts
18-Mar-18 13:21 51.048042 -58.403628 242 33014ft 517kts
18-Mar-18 13:22 50.978566 -58.603338 241 33042ft 517kts
18-Mar-18 13:23 50.908585 -58.802914 241 33071ft 516kts
18-Mar-18 13:24 50.838533 -59.001136 241 33106ft 516kts
18-Mar-18 13:25 50.768166 -59.198708 241 33140ft 516kts
18-Mar-18 13:26 50.697261 -59.396228 241 33166ft 516kts
18-Mar-18 13:27 50.626288 -59.592474 241 33185ft 516kts
18-Mar-18 13:28 50.554842 -59.788493 240 33206ft 515kts
18-Mar-18 13:29 50.483398 -59.983025 240 33225ft 514kts
18-Mar-18 13:30 50.411636 -60.176939 240 33244ft 514kts
18-Mar-18 13:31 50.339335 -60.370873 240 33260ft 514kts
18-Mar-18 13:32 50.266955 -60.563565 240 33318ft 514kts
18-Mar-18 13:33 50.193995 -60.756357 240 33320ft 514kts
18-Mar-18 13:34 50.120944 -60.947960 239 33319ft 514kts
18-Mar-18 13:35 50.047629 -61.138836 239 33325ft 514kts
18-Mar-18 13:36 49.973821 -61.329639 239 33321ft 513kts
18-Mar-18 13:37 49.900205 -61.518541 239 33321ft 512kts
18-Mar-18 13:38 49.826022 -61.707530 239 33321ft 512kts
18-Mar-18 13:39 49.751724 -61.895435 238 33341ft 512kts
18-Mar-18 13:40 49.677137 -62.082771 238 33350ft 512kts
18-Mar-18 13:41 49.602029 -62.270057 238 33364ft 511kts
18-Mar-18 13:42 49.526984 -62.455873 238 33379ft 511kts
18-Mar-18 13:43 49.451480 -62.641509 238 33394ft 510kts
18-Mar-18 13:44 49.376104 -62.825548 237 33408ft 509kts
18-Mar-18 13:45 49.300530 -63.008786 237 33421ft 508kts
18-Mar-18 13:46 49.224497 -63.191873 237 33433ft 508kts
18-Mar-18 13:47 49.148514 -63.373590 237 33451ft 508kts
18-Mar-18 13:48 49.072034 -63.555266 236 33466ft 508kts
18-Mar-18 13:49 48.995511 -63.735806 236 33498ft 507kts
18-Mar-18 13:50 48.918844 -63.915472 236 33503ft 507kts
18-Mar-18 13:51 48.841683 -64.095084 236 33507ft 506kts
18-Mar-18 13:52 48.764637 -64.273242 236 33510ft 505kts
18-Mar-18 13:53 48.687184 -64.451157 236 33510ft 504kts
18-Mar-18 13:54 48.609739 -64.627883 236 33512ft 505kts
18-Mar-18 13:55 48.532037 -64.804041 236 33518ft 504kts
18-Mar-18 13:56 48.453803 -64.980249 236 33528ft 504kts
18-Mar-18 13:57 48.375694 -65.155010 236 33551ft 504kts
18-Mar-18 13:58 48.297342 -65.329239 235 33563ft 503kts
18-Mar-18 13:59 48.218603 -65.503196 235 33579ft 503kts
18-Mar-18 14:00 48.139947 -65.675855 235 33592ft 502kts
18-Mar-18 14:01 48.060766 -65.848568 235 33605ft 502kts
18-Mar-18 14:02 47.981586 -66.020190 235 33610ft 502kts
18-Mar-18 14:03 47.902186 -66.191191 235 33621ft 501kts
18-Mar-18 14:04 47.822316 -66.362176 235 33627ft 502kts
18-Mar-18 14:05 47.742407 -66.532142 235 33634ft 501kts
18-Mar-18 14:06 47.662138 -66.701861 235 33639ft 501kts
18-Mar-18 14:07 47.581887 -66.870487 235 33661ft 501kts
18-Mar-18 14:08 47.501802 -67.038834 235 33670ft 500kts
18-Mar-18 14:09 47.420656 -67.206481 235 33681ft 500kts
18-Mar-18 14:10 47.323261 -67.351898 216 33685ft 505kts
18-Mar-18 14:11 47.204451 -67.463540 213 33687ft 506kts
18-Mar-18 14:12 47.085617 -67.573711 214 33692ft 506kts
18-Mar-18 14:13 46.967371 -67.684896 214 33695ft 506kts
18-Mar-18 14:14 46.848374 -67.795527 214 33699ft 506kts
18-Mar-18 14:15 46.729599 -67.905216 214 33710ft 506kts
18-Mar-18 14:16 46.610278 -68.014803 214 33719ft 506kts
18-Mar-18 14:17 46.491216 -68.123583 215 33716ft 506kts
18-Mar-18 14:18 46.371975 -68.231956 215 33711ft 506kts
18-Mar-18 14:19 46.252305 -68.340145 215 33714ft 506kts
18-Mar-18 14:20 46.132852 -68.447584 215 33720ft 507kts
18-Mar-18 14:21 46.013242 -68.554598 214 33736ft 507kts
18-Mar-18 14:22 45.893164 -68.661478 215 33748ft 506kts
18-Mar-18 14:23 45.773505 -68.767453 215 33753ft 506kts
18-Mar-18 14:24 45.653351 -68.873313 215 33756ft 506kts
18-Mar-18 14:25 45.533567 -68.978317 215 33750ft 506kts
18-Mar-18 14:26 45.413569 -69.082969 216 33737ft 506kts
18-Mar-18 14:27 45.293111 -69.187500 216 33730ft 506kts
18-Mar-18 14:28 45.173045 -69.291168 216 33733ft 506kts
18-Mar-18 14:29 45.052585 -69.394654 216 33741ft 504kts
18-Mar-18 14:30 44.932637 -69.497187 216 33749ft 504kts
18-Mar-18 14:31 44.812689 -69.599219 216 33758ft 504kts
18-Mar-18 14:32 44.692378 -69.701056 217 33767ft 503kts
18-Mar-18 14:33 44.572591 -69.801954 217 33768ft 501kts
18-Mar-18 14:34 44.452649 -69.902494 217 33791ft 501kts
18-Mar-18 14:35 44.333097 -70.002224 217 33812ft 501kts
18-Mar-18 14:36 44.213192 -70.101769 217 33837ft 500kts
18-Mar-18 14:37 44.093601 -70.200568 217 33849ft 500kts
18-Mar-18 14:38 43.973933 -70.298980 217 33850ft 500kts
18-Mar-18 14:39 43.853921 -70.397204 217 33859ft 499kts
18-Mar-18 14:40 43.734335 -70.494600 218 33867ft 499kts
18-Mar-18 14:41 43.614859 -70.591480 218 33872ft 498kts
18-Mar-18 14:42 43.495085 -70.688140 218 33877ft 497kts
18-Mar-18 14:43 43.375860 -70.783910 218 33879ft 496kts
18-Mar-18 14:44 43.256313 -70.879496 219 33871ft 496kts
18-Mar-18 14:45 43.137301 -70.974219 219 33882ft 495kts
18-Mar-18 14:46 43.018329 -71.068485 219 33900ft 494kts
18-Mar-18 14:47 42.899075 -71.162545 219 33914ft 493kts
18-Mar-18 14:48 42.780309 -71.255795 219 33922ft 493kts
18-Mar-18 14:49 42.661621 -71.348578 219 33922ft 492kts
18-Mar-18 14:50 42.542710 -71.441120 219 33916ft 491kts
18-Mar-18 14:51 42.424295 -71.532863 219 33909ft 490kts
18-Mar-18 14:52 42.305636 -71.624399 219 33895ft 489kts
18-Mar-18 14:53 42.207154 -71.700064 219 33881ft 489kts
18-Mar-18 14:54 42.069387 -71.805453 220 33889ft 488kts
18-Mar-18 14:55 41.970544 -71.880740 219 33899ft 488kts
18-Mar-18 14:56 41.832682 -71.985296 219 33927ft 488kts
18-Mar-18 14:57 41.733748 -72.060008 219 33937ft 488kts
18-Mar-18 14:58 41.615389 -72.149035 219 33938ft 489kts
18-Mar-18 14:59 41.477192 -72.252505 219 33946ft 489kts
18-Mar-18 15:00 41.358113 -72.341266 219 33947ft 490kts
18-Mar-18 15:01 41.258833 -72.414971 218 33947ft 491kts
18-Mar-18 15:02 41.139654 -72.503118 218 33961ft 491kts
18-Mar-18 15:03 41.019976 -72.591261 218 33974ft 491kts
18-Mar-18 15:04 40.900566 -72.678836 217 33986ft 491kts
18-Mar-18 15:05 40.781065 -72.766116 217 33983ft 491kts
18-Mar-18 15:06 40.661086 -72.853382 217 33982ft 491kts
18-Mar-18 15:07 40.541400 -72.940077 217 33975ft 491kts
18-Mar-18 15:08 40.421405 -73.026643 217 33975ft 493kts
18-Mar-18 15:09 40.300961 -73.113478 217 33978ft 493kts
18-Mar-18 15:10 40.180683 -73.199349 217 33981ft 493kts
18-Mar-18 15:11 40.065669 -73.292750 227 33977ft 479kts
18-Mar-18 15:12 39.964410 -73.405441 228 33988ft 478kts
18-Mar-18 15:13 39.863347 -73.518180 228 33996ft 479kts
18-Mar-18 15:14 39.762384 -73.631060 228 33998ft 479kts
18-Mar-18 15:15 39.660756 -73.743813 228 34000ft 479kts
18-Mar-18 15:16 39.559475 -73.855979 228 34002ft 479kts
18-Mar-18 15:17 39.457405 -73.967908 228 34003ft 480kts
18-Mar-18 15:18 39.355587 -74.079186 228 34008ft 480kts
18-Mar-18 15:19 39.253535 -74.190169 228 34008ft 480kts
18-Mar-18 15:20 39.151332 -74.301667 228 34010ft 480kts
18-Mar-18 15:21 39.049099 -74.412379 227 34009ft 481kts
18-Mar-18 15:22 38.946598 -74.522626 227 34013ft 481kts
18-Mar-18 15:23 38.843644 -74.633139 227 34014ft 481kts
18-Mar-18 15:24 38.740755 -74.742837 227 34018ft 481kts
18-Mar-18 15:25 38.637778 -74.852235 227 34025ft 482kts
18-Mar-18 15:26 38.534265 -74.961760 227 34033ft 482kts
18-Mar-18 15:27 38.431260 -75.071017 227 34043ft 482kts
18-Mar-18 15:28 38.328004 -75.179956 227 34048ft 482kts
18-Mar-18 15:29 38.224392 -75.289053 227 34044ft 483kts
18-Mar-18 15:30 38.120668 -75.397205 226 34042ft 483kts
18-Mar-18 15:31 38.007695 -75.492720 214 34055ft 498kts
18-Mar-18 15:32 37.881910 -75.568479 212 34059ft 500kts
18-Mar-18 15:33 37.756221 -75.643176 212 34053ft 500kts
18-Mar-18 15:34 37.630714 -75.718162 213 34050ft 500kts
18-Mar-18 15:35 37.504629 -75.792913 212 34049ft 500kts
18-Mar-18 15:36 37.378857 -75.867152 213 34046ft 500kts
18-Mar-18 15:37 37.252988 -75.941172 212 34043ft 500kts
18-Mar-18 15:38 37.126715 -76.015348 213 34042ft 500kts
18-Mar-18 15:39 37.000608 -76.088882 213 34040ft 500kts
18-Mar-18 15:40 36.874439 -76.162163 213 34040ft 501kts
18-Mar-18 15:41 36.748132 -76.235162 213 34043ft 501kts
18-Mar-18 15:42 36.621527 -76.308474 213 34050ft 501kts
18-Mar-18 15:43 36.494687 -76.381342 213 34048ft 501kts
18-Mar-18 15:44 36.368268 -76.453906 213 34046ft 501kts
18-Mar-18 15:45 36.241446 -76.525544 213 34048ft 501kts
18-Mar-18 15:46 36.114163 -76.597326 213 34049ft 501kts
18-Mar-18 15:47 35.987475 -76.669032 213 34049ft 501kts
18-Mar-18 15:48 35.860872 -76.740297 213 34047ft 501kts
18-Mar-18 15:49 35.733743 -76.811519 214 34045ft 501kts
18-Mar-18 15:50 35.606928 -76.882307 214 34042ft 501kts
18-Mar-18 15:51 35.479614 -76.953119 214 34041ft 501kts
18-Mar-18 15:52 35.352610 -77.023523 214 34044ft 501kts
18-Mar-18 15:53 35.225556 -77.093706 214 34048ft 502kts
18-Mar-18 15:54 35.097934 -77.163957 214 34048ft 502kts
18-Mar-18 15:55 34.970676 -77.233774 214 34048ft 502kts
18-Mar-18 15:56 34.843376 -77.303466 215 34039ft 502kts
18-Mar-18 15:57 34.715519 -77.373174 215 34032ft 502kts
18-Mar-18 15:58 34.587928 -77.442238 214 34031ft 505kts
18-Mar-18 15:59 34.450140 -77.493376 205 34032ft 523kts
18-Mar-18 16:00 34.309676 -77.536910 206 34032ft 523kts
18-Mar-18 16:01 34.169304 -77.582147 207 34031ft 522kts
18-Mar-18 16:02 34.028492 -77.627567 207 34030ft 523kts
18-Mar-18 16:03 33.888025 -77.672648 207 34028ft 524kts
18-Mar-18 16:04 33.747293 -77.717657 207 34030ft 524kts
18-Mar-18 16:05 33.606183 -77.762626 207 34028ft 524kts
18-Mar-18 16:06 33.465482 -77.807321 207 34027ft 524kts
18-Mar-18 16:07 33.324120 -77.852071 207 34026ft 524kts
18-Mar-18 16:08 33.183292 -77.896502 207 34025ft 524kts
18-Mar-18 16:09 33.045159 -77.939934 208 34029ft 507kts
18-Mar-18 16:10 32.908133 -77.982896 208 34028ft 508kts
18-Mar-18 16:11 32.771664 -78.025531 208 34031ft 505kts
18-Mar-18 16:12 32.636066 -78.067774 208 34024ft 505kts
18-Mar-18 16:13 32.499794 -78.110086 208 34025ft 505kts
18-Mar-18 16:14 32.363897 -78.152153 208 34023ft 506kts
18-Mar-18 16:15 32.227057 -78.194468 208 34014ft 507kts
18-Mar-18 16:16 32.090508 -78.236411 208 34009ft 507kts
18-Mar-18 16:17 31.954327 -78.278980 208 34005ft 506kts
18-Mar-18 16:18 31.818046 -78.322559 208 34002ft 506kts
18-Mar-18 16:19 31.682082 -78.365835 208 33995ft 506kts
18-Mar-18 16:20 31.545700 -78.409340 208 33994ft 507kts
18-Mar-18 16:21 31.409786 -78.452423 207 33990ft 505kts
18-Mar-18 16:22 31.274088 -78.495294 207 33987ft 506kts
18-Mar-18 16:23 31.137765 -78.538233 207 33982ft 506kts
18-Mar-18 16:24 31.001791 -78.580937 207 33986ft 507kts
18-Mar-18 16:25 30.865710 -78.623641 206 33984ft 507kts
18-Mar-18 16:26 30.729016 -78.666261 206 33985ft 508kts
18-Mar-18 16:27 30.590783 -78.705345 200 33982ft 521kts
18-Mar-18 16:28 30.446106 -78.728610 199 33987ft 522kts
18-Mar-18 16:29 30.302636 -78.753215 199 33971ft 522kts
18-Mar-18 16:30 30.159191 -78.778123 199 33966ft 522kts
18-Mar-18 16:31 30.015290 -78.803023 199 33959ft 522kts
18-Mar-18 16:32 29.871700 -78.827713 198 33961ft 522kts
18-Mar-18 16:33 29.727235 -78.851120 196 33960ft 527kts
18-Mar-18 16:34 29.582217 -78.869818 196 33960ft 523kts
18-Mar-18 16:35 29.437687 -78.889110 196 33962ft 524kts
18-Mar-18 16:36 29.292606 -78.908416 196 33964ft 523kts
18-Mar-18 16:37 29.148096 -78.927791 196 33966ft 523kts
18-Mar-18 16:38 29.003535 -78.947123 196 33969ft 523kts
18-Mar-18 16:39 28.858771 -78.966502 196 33968ft 522kts
18-Mar-18 16:40 28.714675 -78.985703 196 33969ft 522kts
18-Mar-18 16:41 28.570064 -79.004947 196 33962ft 522kts
18-Mar-18 16:42 28.425950 -79.024017 196 33965ft 522kts
18-Mar-18 16:43 28.288945 -79.062340 210 33970ft 500kts
18-Mar-18 16:44 28.160535 -79.121802 212 33970ft 497kts
18-Mar-18 16:45 28.033277 -79.182202 212 33973ft 495kts
18-Mar-18 16:46 27.906328 -79.242663 212 33974ft 497kts
18-Mar-18 16:47 27.778536 -79.303184 211 33983ft 497kts
18-Mar-18 16:48 27.651173 -79.363313 211 33985ft 497kts
18-Mar-18 16:49 27.523319 -79.423524 211 33985ft 497kts
18-Mar-18 16:50 27.395830 -79.483414 211 33985ft 497kts
18-Mar-18 16:51 27.268866 -79.542900 211 33856ft 482kts
18-Mar-18 16:52 27.144808 -79.600910 210 31045ft 479kts
18-Mar-18 16:53 27.024085 -79.657202 210 28051ft 463kts
18-Mar-18 16:54 26.906782 -79.711764 209 25056ft 450kts
18-Mar-18 16:55 26.792175 -79.764972 208 22052ft 439kts
18-Mar-18 16:56 26.680763 -79.816579 208 19056ft 428kts
18-Mar-18 16:57 26.571748 -79.866974 207 16060ft 417kts
18-Mar-18 16:58 26.467169 -79.915328 207 13864ft 389kts
18-Mar-18 16:59 26.370898 -79.959598 206 12479ft 369kts
18-Mar-18 17:00 26.276057 -80.003149 206 11078ft 363kts
18-Mar-18 17:01 26.180446 -80.034457 196 9732ft 352kts
18-Mar-18 17:02 26.090153 -80.059457 196 9478ft 311kts
18-Mar-18 17:03 26.010751 -80.081773 196 9132ft 286kts
18-Mar-18 17:04 25.946106 -80.124918 233 7971ft 271kts
18-Mar-18 17:05 25.909649 -80.198550 251 6221ft 273kts
18-Mar-18 17:06 25.898008 -80.275582 279 5265ft 238kts
18-Mar-18 17:07 25.919872 -80.335456 293 5001ft 183kts
18-Mar-18 17:08 25.939841 -80.389411 274 3731ft 197kts
18-Mar-18 17:09 25.900084 -80.416737 184 2920ft 178kts
18-Mar-18 17:10 25.859978 -80.408866 158 2033ft 168kts
18-Mar-18 17:11 25.829500 -80.361399 120 1207ft 147kts
18-Mar-18 17:12 25.813353 -80.329771 120 605ft 149kts
18-Mar-18 17:13 25.794176 -80.292314 120 22ft 116kts
18-Mar-18 17:14 25.789925 -80.282071 357 21ft 6kts
18-Mar-18 17:15 25.790915 -80.283796 302 21ft 0kts
18-Mar-18 17:16 25.790915 -80.283796 302 21ft 0kts

Navigation Log

Ident Type
Flight plan parsing failed, navigation log unavailable